Lexington Weather

Lexington, Massachusetts, USA

24°F
2/26/2021 7:11am 
  • Lexington Conditions: Clear
  • Temperature: 24.4°F / -4.2°CColder 1.1°F than last hour.
  • Dew Point: 14.7°FDecreased 0.7°Fsince last hour.
  • Relative Humidity: 66%Increased 1.0% since last hour.
  • Wind: Calm, 10-min avg: Calm, gust: None
  • Barometer: 30.33 inRising 0.03  inHg/hr Rising Slowly
  • Visibility: 10 miles
  • Snow Today: 0.0 in
  •   

Nearby Reports - Official Weather Stations - Current Conditions

Data from the National Weather Service

KBED - Bedford, MA


Distance from station: WNW 4mi, 6km

Updated Fri Feb 26, 2021 6:51am EST

Clear

Clear

Wind from calm

Wind:

Calm

Temperature: 21°F (-6°C)

Dew Point: 10°F (-12°C)

Humidity: 63%

Barometer: 30.36 in (1028.1 hPa)

Clouds: Clear

Visibility: 10 miles (16 km)


2021/02/26 11:51 KBED 261151Z AUTO 00000KT 10SM CLR M06/M12 A3036 RMK AO2 SLP296 T10611117 11011 21072 53034

KBOS - Boston, MA


Distance from station: ESE 12mi, 20km

Updated Fri Feb 26, 2021 6:54am EST

Few Clouds

Few Clouds

Wind from NW

Wind:

NW 8 mph, 13 km/h

Temperature: 28°F (-2°C)

Wind Chill: 20°F (-7°C)

Dew Point: 10°F (-12°C)

Humidity: 47%

Barometer: 30.38 in (1028.8 hPa)

Clouds: Few Clouds

Visibility: 10 miles (16 km)

Cloud details: Few Clouds 5000 ft
Few Clouds 20000 ft


2021/02/26 11:54 KBOS 261154Z 31007KT 10SM FEW050 FEW200 M02/M12 A3038 RMK AO2 SLP286 T10171117 10000 21022 53035

KOWD - Norwood, MA


Distance from station: SSE 18mi, 29km

Updated Fri Feb 26, 2021 6:53am EST

Clear

Clear

Wind from calm

Wind:

Calm

Temperature: 21°F (-6°C)

Dew Point: 16°F (-9°C)

Humidity: 80%

Barometer: 30.37 in (1028.4 hPa)

Clouds: Clear

Visibility: 10 miles (16 km)


2021/02/26 11:53 KOWD 261153Z 00000KT 10SM CLR M06/M09 A3037 RMK AO2 SLP285 I6000 T10561089 11011 21067 53033

KBVY - Beverly, MA


Distance from station: ENE 19mi, 31km

Updated Fri Feb 26, 2021 6:53am EST

Clear

Clear

Wind from N

Wind:

N 3 mph, 6 km/h

Temperature: 25°F (-4°C)

Dew Point: 12°F (-11°C)

Humidity: 59%

Barometer: 30.36 in (1028.1 hPa)

Clouds: Clear

Visibility: 10 miles (16 km)


2021/02/26 11:53 KBVY 261153Z 36003KT 10SM CLR M04/M11 A3036 RMK AO2 SLP280 T10391106 11006 21050 53038

KLWM - Lawrence, MA


Distance from station: NNE 20mi, 32km

Updated Fri Feb 26, 2021 6:54am EST

Clear

Clear

Wind from N

Wind:

N 3 mph, 6 km/h

Temperature: 21°F (-6°C)

Dew Point: 10°F (-12°C)

Humidity: 63%

Barometer: 30.38 in (1028.8 hPa)

Clouds: Clear

Visibility: 10 miles (16 km)


2021/02/26 11:54 KLWM 261154Z 36003KT 10SM CLR M06/M12 A3038 RMK AO2 SLP289 T10561117 11017 21061 53036

KFIT - Fitchburg, MA


Distance from station: WNW 27mi, 44km

Updated Fri Feb 26, 2021 6:52am EST

Clear

Clear

Wind from WNW

Wind:

WNW 3 mph, 6 km/h

Temperature: 18°F (-8°C)

Dew Point: 14°F (-10°C)

Humidity: 86%

Barometer: 30.35 in (1027.8 hPa)

Clouds: Clear

Visibility: 10 miles (16 km)


2021/02/26 11:52 KFIT 261152Z AUTO 30003KT 10SM CLR M08/M10 A3035 RMK AO2 SLP284 T10781100 11017 21083 53030

KASH - Nashua/Boire Fld, NH


Distance from station: NNW 28mi, 44km

Updated Fri Feb 26, 2021 6:56am EST

Clear

Clear

Wind from calm

Wind:

Calm

Temperature: 19°F (-7°C)

Dew Point: 16°F (-9°C)

Humidity: 86%

Barometer: 30.37 in (1028.4 hPa)

Clouds: Clear

Visibility: 10 miles (16 km)


2021/02/26 11:56 KASH 261156Z 00000KT 10SM CLR M07/M09 A3037 RMK AO2 SLP293 T10671094 11011 21067 53036

KORH - Worcester, MA


Distance from station: WSW 34mi, 55km

Updated Fri Feb 26, 2021 6:54am EST

Clear

Clear

Wind from WNW

Wind:

WNW 7 mph, 11 km/h

Temperature: 25°F (-4°C)

Wind Chill: 17°F (-8°C)

Dew Point: 10°F (-12°C)

Humidity: 54%

Barometer: 30.31 in (1026.4 hPa)

Clouds: Clear

Visibility: 10 miles (16 km)


2021/02/26 11:54 KORH 261154Z 30006KT 10SM CLR M04/M12 A3031 RMK AO2 SLP278 T10391117 11028 21044 51030

KMHT - Manchester, NH


Distance from station: NNW 35mi, 57km

Updated Fri Feb 26, 2021 6:53am EST

Clear

Clear

Wind from NNW

Wind:

NNW 8 mph, 13 km/h

Temperature: 23°F (-5°C)

Wind Chill: 14°F (-10°C)

Dew Point: 10°F (-12°C)

Humidity: 58%

Barometer: 30.35 in (1027.8 hPa)

Clouds: Clear

Visibility: 10 miles (16 km)


2021/02/26 11:53 KMHT 261153Z 33007KT 10SM CLR M05/M12 A3035 RMK AO2 PRESRR SLP298 4/002 T10501117 11017 21050 53038

KGHG - Marshfield, MA


Distance from station: SE 38mi, 60km

Updated Fri Feb 26, 2021 6:35am EST

Clear

Clear

Wind from WSW

Wind:

WSW 3 mph, 6 km/h

Temperature: 28°F (-2°C)

Dew Point: 12°F (-11°C)

Humidity: 51%

Barometer: 30.35 in (1027.8 hPa)

Clouds: Clear

Visibility: 10 miles (16 km)


2021/02/26 11:35 KGHG 261135Z AUTO 25003KT 10SM CLR M02/M11 A3035 RMK AO2

KSFZ - Pawtucket, RI


Distance from station: SSW 39mi, 62km

Updated Fri Feb 26, 2021 6:56am EST

Clear

Clear

Wind from NW

Wind:

NW 5 mph, 7 km/h

Temperature: 27°F (-3°C)

Wind Chill: 21°F (-6°C)

Dew Point: 14°F (-10°C)

Humidity: 59%

Barometer: 30.36 in (1028.1 hPa)

Clouds: Clear

Visibility: 10 miles (16 km)


2021/02/26 11:56 KSFZ 261156Z AUTO 31004KT 10SM CLR M03/M10 A3036 RMK AO2 SLP228 T10281100 11011 21033 51034 FZRANO $

KTAN - Taunton, MA


Distance from station: SSE 40mi, 65km

Updated Fri Feb 26, 2021 6:52am EST

Clear

Clear

Wind from calm

Wind:

Calm

Temperature: 25°F (-4°C)

Dew Point: 12°F (-11°C)

Humidity: 59%

Barometer: 30.37 in (1028.4 hPa)

Clouds: Clear

Visibility: 10 miles (16 km)


2021/02/26 11:52 KTAN 261152Z AUTO 00000KT 10SM CLR M04/M11 A3037 RMK AO2 SLP283 T10391111 10000 21061 51035

KPYM - Plymouth, MA


Distance from station: SE 44mi, 72km

Updated Fri Feb 26, 2021 6:52am EST

Clear

Clear

Wind from WNW

Wind:

WNW 6 mph, 9 km/h

Temperature: 27°F (-3°C)

Wind Chill: 20°F (-7°C)

Dew Point: 10°F (-12°C)

Humidity: 50%

Barometer: 30.36 in (1028.1 hPa)

Clouds: Clear

Visibility: 10 miles (16 km)


2021/02/26 11:52 KPYM 261152Z AUTO 30005KT 10SM CLR M03/M12 A3036 RMK AO2 SLP281 T10281117 11006 21028 53036

KAFN - Jaffrey, NH


Distance from station: WNW 46mi, 74km

Updated Fri Feb 26, 2021 6:52am EST

Clear

Clear

Wind from SSW

Wind:

SSW 5 mph, 7 km/h

Temperature: 18°F (-8°C)

Wind Chill: 11°F (-12°C)

Dew Point: 10°F (-12°C)

Humidity: 73%

Barometer: 30.29 in (1025.7 hPa)

Clouds: Clear

Visibility: 10 miles (16 km)


2021/02/26 11:52 KAFN 261152Z AUTO 20004KT 10SM CLR M08/M12 A3029 RMK AO2 SLP279 7//// T10831122 11033 21094 53025

KPSM - Portsmouth/Pease, NH


Distance from station: NNE 48mi, 78km

Updated Fri Feb 26, 2021 5:56am EST (NOT Current)

Clear

Clear

Wind from W

Wind:

W 6 mph, 9 km/h

Temperature: 23°F (-5°C)

Wind Chill: 16°F (-9°C)

Dew Point: 7°F (-14°C)

Humidity: 50%

Barometer: 30.30 in (1026.1 hPa)

Clouds: Clear

Visibility: 10 miles (16 km)


2021/02/26 10:56 KPSM 261056Z 28005KT 10SM CLR M05/M14 A3030 RMK AO2A SLP264 T10521143

KPVD - Providence/Green, RI


Distance from station: S 51mi, 82km

Updated Fri Feb 26, 2021 6:51am EST

Few Clouds

Few Clouds

Wind from WNW

Wind:

WNW 5 mph, 7 km/h

Temperature: 30°F (-1°C)

Wind Chill: 25°F (-4°C)

Dew Point: 12°F (-11°C)

Humidity: 47%

Barometer: 30.38 in (1028.8 hPa)

Clouds: Few Clouds

Visibility: 10 miles (16 km)

Cloud details: Few Clouds 25000 ft


2021/02/26 11:51 KPVD 261151Z 30004KT 10SM FEW250 M01/M11 A3038 RMK AO2 SLP287 T10111106 10011 21017 51035

KCON - Concord, NH


Distance from station: NNW 54mi, 87km

Updated Fri Feb 26, 2021 6:51am EST

Clear

Clear

Wind from NNW

Wind:

NNW 5 mph, 7 km/h

Temperature: 19°F (-7°C)

Wind Chill: 12°F (-11°C)

Dew Point: 9°F (-13°C)

Humidity: 63%

Barometer: 30.36 in (1028.1 hPa)

Clouds: Clear

Visibility: 10 miles (16 km)


2021/02/26 11:51 KCON 261151Z AUTO 33004KT 10SM CLR M07/M13 A3036 RMK AO2 SLP288 T10671128 11039 21083 53037

KEWB - New Bedford, MA


Distance from station: SSE 54mi, 87km

Updated Fri Feb 26, 2021 6:53am EST

Clear

Clear

Wind from WNW

Wind:

WNW 3 mph, 6 km/h

Temperature: 25°F (-4°C)

Dew Point: 12°F (-11°C)

Humidity: 59%

Barometer: 30.37 in (1028.4 hPa)

Clouds: Clear

Visibility: 10 miles (16 km)


2021/02/26 11:53 KEWB 261153Z 30003KT 10SM CLR M04/M11 A3037 RMK AO2 SLP284 T10391106 10011 21044 51035

KORE - Orange, Massachusetts, USA


Distance from station: W 54mi, 87km

Updated Fri Feb 26, 2021 6:52am EST

Clear

Clear

Wind from calm

Wind:

Calm

Temperature: 21°F (-6°C)

Dew Point: 14°F (-10°C)

Humidity: 74%

Barometer: 30.34 in (1027.4 hPa)

Clouds: Clear

Visibility: 10 miles (16 km)


2021/02/26 11:52 KORE 261152Z AUTO 00000KT 10SM CLR M06/M10 A3034 RMK AO2 SLP284 T10561100 11028 21078 53025

KCEF - Chicopee/Westover, Massachusetts, USA


Distance from station: WSW 67mi, 108km

Updated Fri Feb 26, 2021 5:56am EST (NOT Current)

Clear

Clear

Wind from W

Wind:

W 6 mph, 9 km/h

Temperature: 27°F (-3°C)

Wind Chill: 20°F (-7°C)

Dew Point: 14°F (-10°C)

Humidity: 59%

Barometer: 30.33 in (1027.1 hPa)

Clouds: Clear

Visibility: 10 miles (16 km)


2021/02/26 10:56 KCEF 261056Z AUTO 27005KT 10SM CLR M03/M10 A3033 RMK AO2 SLP280 T10311098

KMWN - Mount Washington, NH


Distance from station: N 126mi, 203km

Updated Fri Feb 26, 2021 4:59am EST (NOT Current)

Freezing fog, Blowing snow, Overcast

Freezing fog, Blowing snow, Overcast

Wind from WNW

Wind:

WNW 83 mph, 133 km/h,
Gust: 94 mph, 152 km/h

Temperature: -8°F (-22°C)

Wind Chill: -49°F (-45°C)

Dew Point: -8°F (-22°C)

Humidity: 100%

Summary: Freezing fog, Blowing snow

Clouds: Overcast

Visibility: 1/16 mile (0 km)

Cloud details: Overcast 100 ft


2021/02/26 09:59 KMWN 260959Z 30072G82KT 1/16SM FZFG BLSN VV001 M22/M22 RMK PK WND 30092/42 VRY LGT ICG